• Join FlightAware (Why Join?)
  • Login
  • US Flag 
09:28PM EDT


 

Airport Tracker/Info


-or-


 

Live Flight TrackerFlight Track Log ✈ CNS13 ✈ 10-May-2013 ✈ KFLL - MYAM / MHH

Flight Track Log - Related Links

Times and Time Zones

All times are in EDT time to prevent confusion due to time zone crossing. See the CNS13 flight status page for this flight to view local times or setup timezone preferences in your user account.

Time Position Orientation Groundspeed Altitude Reporting Facility
EDT Latitude Longitude Course Direction KTS MPH feet Rate Location/Type
02:15PM 26.0769 -80.1461 45° Northeast 111 128 700  Level Miami Center
02:16PM 26.1111 -80.1075 45° Northeast 157 181 2,400 1,260 Climbing Miami Center
02:17PM 26.1392 -80.0714 49° Northeast 160 184 3,800 780 Climbing Miami Center
02:18PM 26.1672 -80.0236 57° Northeast 182 209 4,000 60 Climbing Miami Center
02:19PM 26.1792 -79.9589 78° East 182 209 4,000 300 Level Miami Center
02:20PM 26.1889 -79.8944 80° East 199 229 4,700 1,080 Climbing Miami Center
02:21PM 26.1983 -79.8392 79° East 194 223 6,200 1,200 Climbing Miami Center
02:22PM 26.2058 -79.7792 82° East 189 217 7,200 1,140 Climbing Miami Center
02:23PM 26.2194 -79.7214 75° East 189 217 8,500 900 Climbing Miami Center
02:24PM 26.2517 -79.6689 56° Northeast 189 217 9,000 300 Climbing Miami Center
02:25PM 26.2906 -79.6119 53° Northeast 216 249 9,100 -60 Climbing Miami Center
02:26PM 26.3003 -79.5333 82° East 226 260 8,900 360 Descending Miami Center
02:27PM 26.3056 -79.4664 85° East 232 267 9,900 840 Climbing Miami Center
02:28PM 26.3111 -79.3878 85° East 232 267 10,600 900 Climbing Miami Center
02:29PM 26.3164 -79.3275 84° East 227 261 11,700 1,260 Climbing Miami Center
02:30PM 26.3239 -79.2603 83° East 214 246 13,200 1,260 Climbing Miami Center
02:31PM 26.3289 -79.2025 84° East 209 241 14,300 900 Climbing Miami Center
02:32PM 26.3361 -79.1425 82° East 201 231 15,000 300 Climbing Miami Center
02:33PM 26.3436 -79.0683 84° East 212 244 14,900  Descending Miami Center
02:34PM 26.3511 -78.9850 84° East 240 276 15,000  Climbing Miami Center
02:35PM 26.3564 -78.9064 86° East 251 289 15,000  Level Miami Center
02:36PM 26.3636 -78.8253 84° East 256 295 15,000  Level Miami Center
02:37PM 26.3711 -78.7442 84° East 256 295 15,000  Level Miami Center
02:38PM 26.3783 -78.6631 84° East 256 295 15,000  Level Miami Center
02:39PM 26.3878 -78.5797 83° East 261 300 15,000  Level Miami Center
02:40PM 26.3928 -78.4986 86° East 261 300 15,000 -60 Level Miami Center
02:41PM 26.4000 -78.4200 84° East 253 291 14,900 -300 Descending Miami Center
02:42PM 26.4050 -78.3389 86° East 258 297 14,500 -660 Descending Miami Center
02:43PM 26.4164 -78.2439 82° East 276 318 13,600 -960 Descending Miami Center
02:44PM 26.4233 -78.1581 85° East 286 329 12,600 -960 Descending Miami Center
02:45PM 26.4283 -78.0769 86° East 279 321 11,700 -960 Descending Miami Center
02:46PM 26.4372 -77.9936 83° East 272 313 10,700 -1,020 Descending Miami Center
02:47PM 26.4442 -77.9169 84° East 255 293 9,700 -1,020 Descending Miami Center
02:48PM 26.4489 -77.8475 86° East 243 280 8,700 -1,020 Descending Miami Center
02:49PM 26.4533 -77.7778 86° East 231 266 7,700 -900 Descending Miami Center
02:50PM 26.4600 -77.7128 83° East 219 252 7,000 -360 Descending Miami Center
02:51PM 26.4647 -77.6525 85° East 207 238 7,000  Level Miami Center
02:52PM 26.4714 -77.5806 84° East 207 238 7,000  Level Miami Center